Time;durP1;ratioP1;P1;durP2;ratioP2;P2;SDS_P1;SDS_P2;PMS_P1;PMS_P2;Temp;Humidity;BMP_temperature;BMP_pressure;BME280_temperature;BME280_humidity;BME280_pressure;Samples;Min_cycle;Max_cycle;Signal;HPM_P1;HPM_P2
2021/04/02 00:02:12;;;;;;;;;;;7.50;92.30;;;;;;5081496;28;20014;-70
2021/04/02 00:04:40;;;;;;;;;;;7.50;93.00;;;;;;5075647;28;19923;-71
2021/04/02 00:07:06;;;;;;;;;;;7.50;94.10;;;;;;5083344;28;19912;-71
2021/04/02 00:09:32;;;;;;;;;;;7.40;94.40;;;;;;5089898;28;19912;-71
2021/04/02 00:12:00;;;;;;;;;;;7.40;94.40;;;;;;5093879;28;19928;-70
2021/04/02 00:14:30;;;;;;;;;;;7.40;94.40;;;;;;5088651;28;20511;-71
2021/04/02 00:16:58;;;;;;;;;;;7.40;94.90;;;;;;5086315;28;20314;-71
2021/04/02 00:19:24;;;;;;;;;;;7.40;95.10;;;;;;5089389;28;19912;-71
2021/04/02 00:21:52;;;;;;;;;;;7.30;95.80;;;;;;5081769;28;19931;-71
2021/04/02 00:24:17;;;;;;;;;;;7.30;96.50;;;;;;5074877;28;20377;-71
2021/04/02 00:26:47;;;;;;;;;;;7.30;96.80;;;;;;5088199;28;19920;-71
2021/04/02 00:29:13;;;;;;;;;;;7.20;97.00;;;;;;5087569;28;19927;-70
2021/04/02 00:31:39;;;;;;;;;;;7.10;98.10;;;;;;5090328;28;19912;-71
2021/04/02 00:34:06;;;;;;;;;;;7.10;98.90;;;;;;5092078;28;19962;-70
2021/04/02 00:36:32;;;;;;;;;;;7.10;99.90;;;;;;5091964;28;20003;-70
2021/04/02 00:38:57;;;;;;;;;;;7.10;99.90;;;;;;5078621;28;20060;-70
2021/04/02 00:41:23;;;;;;;;;;;7.10;99.90;;;;;;5075542;28;19931;-70
2021/04/02 00:43:52;;;;;;;;;;;7.10;99.90;;;;;;5074105;28;20345;-69
2021/04/02 00:46:20;;;;;;;;;;;7.00;99.90;;;;;;5075495;28;19931;-70
2021/04/02 00:48:46;;;;;;;;;;;7.00;99.90;;;;;;5074924;28;19916;-70
2021/04/02 00:51:13;;;;;;;;;;;6.90;99.90;;;;;;5091910;28;19925;-70
2021/04/02 00:53:44;;;;;;;;;;;6.90;99.90;;;;;;5089516;28;19924;-70
2021/04/02 00:56:10;;;;;;;;;;;6.90;99.90;;;;;;5076119;28;20389;-71
2021/04/02 00:58:36;;;;;;;;;;;6.80;99.90;;;;;;5090768;28;19919;-71
2021/04/02 01:01:10;;;;;;;;;;;6.80;99.90;;;;;;5090173;28;19916;-70
2021/04/02 01:03:38;;;;;;;;;;;6.80;99.90;;;;;;5092172;28;19930;-70
2021/04/02 01:06:04;;;;;;;;;;;6.80;99.90;;;;;;5082986;28;19931;-71
2021/04/02 01:08:33;;;;;;;;;;;6.70;99.90;;;;;;5090062;27;19931;-70
2021/04/02 01:11:02;;;;;;;;;;;6.70;99.90;;;;;;5089282;28;19912;-70
2021/04/02 01:13:30;;;;;;;;;;;6.70;99.90;;;;;;5092006;28;19924;-70
2021/04/02 01:16:14;;;;;;;;;;;6.70;99.90;;;;;;5097541;28;20496;-70
2021/04/02 01:18:52;;;;;;;;;;;6.60;99.90;;;;;;5080555;28;19916;-70
2021/04/02 01:21:31;;;;;;;;;;;6.60;99.90;;;;;;5074705;28;19970;-70
2021/04/02 01:23:59;;;;;;;;;;;6.60;99.90;;;;;;5086196;28;20050;-70
2021/04/02 01:26:31;;;;;;;;;;;6.60;99.90;;;;;;5074169;28;19916;-71
2021/04/02 01:29:07;;;;;;;;;;;6.60;99.90;;;;;;5074709;28;19919;-70
2021/04/02 01:31:33;;;;;;;;;;;6.60;99.90;;;;;;5074880;28;19920;-70
2021/04/02 01:34:01;;;;;;;;;;;6.60;99.90;;;;;;5089971;28;19916;-70
2021/04/02 01:36:28;;;;;;;;;;;6.50;99.90;;;;;;5089986;28;20369;-70
2021/04/02 01:38:54;;;;;;;;;;;6.50;99.90;;;;;;5085200;28;19976;-70
2021/04/02 01:41:20;;;;;;;;;;;6.40;99.90;;;;;;5074798;28;20420;-70
2021/04/02 01:43:46;;;;;;;;;;;6.50;99.90;;;;;;5091400;28;19912;-70
2021/04/02 01:46:12;;;;;;;;;;;6.40;99.90;;;;;;5095285;28;19919;-70
2021/04/02 01:48:41;;;;;;;;;;;6.40;99.90;;;;;;5092171;28;19912;-70
2021/04/02 01:51:07;;;;;;;;;;;6.40;99.90;;;;;;5089381;28;19922;-71
2021/04/02 01:53:39;;;;;;;;;;;6.40;99.90;;;;;;5082786;28;20448;-71
2021/04/02 01:56:05;;;;;;;;;;;6.30;99.90;;;;;;5076197;28;20037;-70
2021/04/02 01:58:33;;;;;;;;;;;6.30;99.90;;;;;;5085648;28;21582;-71
2021/04/02 02:00:59;;;;;;;;;;;6.30;99.90;;;;;;5073709;28;20403;-70
2021/04/02 02:03:27;;;;;;;;;;;6.30;99.90;;;;;;5074356;28;19966;-71
2021/04/02 02:05:53;;;;;;;;;;;6.30;99.90;;;;;;5073638;28;19956;-70
2021/04/02 02:08:20;;;;;;;;;;;6.30;99.90;;;;;;5076034;28;20751;-70
2021/04/02 02:10:46;;;;;;;;;;;6.20;99.90;;;;;;5075546;28;19927;-70
2021/04/02 02:13:12;;;;;;;;;;;6.20;99.90;;;;;;5080854;28;19920;-70
2021/04/02 02:15:39;;;;;;;;;;;6.20;99.90;;;;;;5065820;28;20021;-70
2021/04/02 02:18:05;;;;;;;;;;;6.30;99.90;;;;;;5077749;28;19920;-71
2021/04/02 02:20:33;;;;;;;;;;;6.30;99.90;;;;;;5065149;28;19962;-70
2021/04/02 02:22:59;;;;;;;;;;;6.30;99.90;;;;;;5077580;28;19931;-70
2021/04/02 02:25:25;;;;;;;;;;;6.30;99.90;;;;;;5079032;28;19920;-70
2021/04/02 02:27:51;;;;;;;;;;;6.40;99.90;;;;;;5078742;28;20003;-70
2021/04/02 02:30:20;;;;;;;;;;;6.40;99.90;;;;;;5082205;28;19981;-71
2021/04/02 02:32:48;;;;;;;;;;;6.50;99.90;;;;;;5093237;28;19956;-70
2021/04/02 02:35:16;;;;;;;;;;;6.60;99.90;;;;;;5085631;28;19920;-70
2021/04/02 02:37:44;;;;;;;;;;;6.60;99.90;;;;;;5076662;28;19978;-69
2021/04/02 02:40:13;;;;;;;;;;;6.70;99.90;;;;;;5078760;28;20001;-70
2021/04/02 02:42:43;;;;;;;;;;;6.70;99.90;;;;;;5077504;28;19922;-70
2021/04/02 02:45:12;;;;;;;;;;;6.80;99.90;;;;;;5076829;28;20250;-70
2021/04/02 02:47:38;;;;;;;;;;;6.70;99.90;;;;;;5084726;28;19973;-70
2021/04/02 02:50:05;;;;;;;;;;;6.80;99.90;;;;;;5089070;28;19959;-70
2021/04/02 02:52:31;;;;;;;;;;;6.80;99.90;;;;;;5097880;28;20358;-70
2021/04/02 02:54:57;;;;;;;;;;;6.80;99.90;;;;;;5095226;28;19920;-71
2021/04/02 02:57:23;;;;;;;;;;;6.90;99.90;;;;;;5089873;28;19919;-70
2021/04/02 02:59:49;;;;;;;;;;;6.80;99.90;;;;;;5085002;28;20332;-70
2021/04/02 03:02:15;;;;;;;;;;;6.80;99.90;;;;;;5077679;28;19919;-70
2021/04/02 03:04:41;;;;;;;;;;;6.80;99.90;;;;;;5092834;28;19974;-70
2021/04/02 03:07:06;;;;;;;;;;;6.90;99.90;;;;;;5107907;27;19993;-70
2021/04/02 03:09:34;;;;;;;;;;;6.80;99.90;;;;;;5095629;28;19916;-70
2021/04/02 03:12:03;;;;;;;;;;;6.80;99.90;;;;;;5077194;28;20261;-70
2021/04/02 03:14:29;;;;;;;;;;;6.90;99.90;;;;;;5092889;27;20004;-70
2021/04/02 03:16:59;;;;;;;;;;;6.90;99.90;;;;;;5092182;27;19924;-70
2021/04/02 03:19:25;;;;;;;;;;;7.00;99.90;;;;;;5086577;28;19966;-70
2021/04/02 03:21:55;;;;;;;;;;;7.00;99.90;;;;;;5080244;28;20010;-70
2021/04/02 03:24:21;;;;;;;;;;;7.00;99.90;;;;;;5075617;28;19920;-70
2021/04/02 03:26:51;;;;;;;;;;;7.00;98.90;;;;;;5079039;28;19973;-70
2021/04/02 03:29:16;;;;;;;;;;;7.00;99.50;;;;;;5077465;28;19965;-71
2021/04/02 03:31:44;;;;;;;;;;;7.00;98.00;;;;;;5075793;28;19924;-71
2021/04/02 03:34:16;;;;;;;;;;;7.10;97.60;;;;;;5076855;28;19917;-72
2021/04/02 03:36:42;;;;;;;;;;;7.10;98.00;;;;;;5101468;27;19915;-70
2021/04/02 03:39:10;;;;;;;;;;;6.90;96.30;;;;;;5091378;28;19949;-71
2021/04/02 03:41:39;;;;;;;;;;;6.90;97.20;;;;;;5107069;27;19912;-71
2021/04/02 03:44:05;;;;;;;;;;;6.90;97.70;;;;;;5089687;28;20344;-70
2021/04/02 03:46:30;;;;;;;;;;;7.00;98.10;;;;;;5083324;28;19959;-71
2021/04/02 03:48:57;;;;;;;;;;;7.00;97.30;;;;;;5078639;28;19923;-70
2021/04/02 03:51:23;;;;;;;;;;;7.00;96.80;;;;;;5090420;28;19999;-71
2021/04/02 03:53:53;;;;;;;;;;;7.10;96.30;;;;;;5093548;28;19924;-71
2021/04/02 03:56:21;;;;;;;;;;;7.20;96.50;;;;;;5095836;28;19919;-70
2021/04/02 03:58:46;;;;;;;;;;;7.20;96.10;;;;;;5091327;28;19919;-70
2021/04/02 04:01:13;;;;;;;;;;;7.20;95.10;;;;;;5077175;28;19919;-71
2021/04/02 04:03:42;;;;;;;;;;;7.20;95.00;;;;;;5079986;28;19969;-70
2021/04/02 04:06:08;;;;;;;;;;;7.20;94.80;;;;;;5074428;28;19916;-71
2021/04/02 04:08:34;;;;;;;;;;;7.20;95.10;;;;;;5088075;28;19923;-71
2021/04/02 04:10:59;;;;;;;;;;;7.20;95.60;;;;;;5093918;28;19942;-71
2021/04/02 04:13:25;;;;;;;;;;;7.10;95.00;;;;;;5085012;28;19924;-71
2021/04/02 04:15:50;;;;;;;;;;;7.10;95.40;;;;;;5077949;28;21438;-71
2021/04/02 04:18:16;;;;;;;;;;;7.00;96.10;;;;;;5073699;28;19947;-71
2021/04/02 04:20:42;;;;;;;;;;;7.00;96.40;;;;;;5066507;28;19919;-71
2021/04/02 04:23:10;;;;;;;;;;;7.00;96.90;;;;;;5075678;28;19916;-70
2021/04/02 04:25:38;;;;;;;;;;;7.00;96.70;;;;;;5083814;28;19920;-71
2021/04/02 04:28:03;;;;;;;;;;;6.90;96.90;;;;;;5089962;28;19985;-71
2021/04/02 04:30:29;;;;;;;;;;;6.80;95.80;;;;;;5071915;28;19924;-71
2021/04/02 04:32:55;;;;;;;;;;;6.90;97.00;;;;;;5077997;28;19924;-71
2021/04/02 04:35:20;;;;;;;;;;;6.90;96.70;;;;;;5076597;28;20050;-71
2021/04/02 04:37:46;;;;;;;;;;;6.90;97.70;;;;;;5090072;28;20353;-71
2021/04/02 04:40:13;;;;;;;;;;;6.80;96.80;;;;;;5095252;28;19939;-70
2021/04/02 04:42:38;;;;;;;;;;;6.90;98.20;;;;;;5088132;28;19913;-71
2021/04/02 04:45:04;;;;;;;;;;;7.00;97.50;;;;;;5076866;28;20367;-71
2021/04/02 04:47:30;;;;;;;;;;;7.00;97.80;;;;;;5091652;28;20249;-71
2021/04/02 04:49:55;;;;;;;;;;;7.00;97.60;;;;;;5065454;28;19946;-70
2021/04/02 04:52:21;;;;;;;;;;;6.90;96.90;;;;;;5067310;28;20036;-71
2021/04/02 04:54:49;;;;;;;;;;;6.90;98.20;;;;;;5091562;28;20356;-70
2021/04/02 04:57:14;;;;;;;;;;;7.00;97.80;;;;;;5090926;28;19936;-71
2021/04/02 04:59:42;;;;;;;;;;;6.90;98.00;;;;;;5092256;28;20622;-71
2021/04/02 05:02:10;;;;;;;;;;;6.90;98.30;;;;;;5091675;28;20016;-70
2021/04/02 05:04:36;;;;;;;;;;;6.90;98.90;;;;;;5085798;28;19951;-70
2021/04/02 05:07:04;;;;;;;;;;;6.90;99.10;;;;;;5080870;28;20318;-70
2021/04/02 05:09:32;;;;;;;;;;;6.90;98.90;;;;;;5091290;28;19991;-70
2021/04/02 05:12:02;;;;;;;;;;;7.00;98.80;;;;;;5081133;28;19920;-70
2021/04/02 05:14:30;;;;;;;;;;;7.00;96.90;;;;;;5091988;28;19926;-71
2021/04/02 05:16:55;;;;;;;;;;;7.10;97.80;;;;;;5103159;27;19978;-71
2021/04/02 05:19:21;;;;;;;;;;;7.10;97.10;;;;;;5090537;28;19947;-71
2021/04/02 05:21:51;;;;;;;;;;;7.10;96.10;;;;;;5087202;28;19920;-71
2021/04/02 05:24:20;;;;;;;;;;;7.10;96.80;;;;;;5081814;28;19984;-70
2021/04/02 05:26:46;;;;;;;;;;;7.00;95.80;;;;;;5080688;28;19916;-71
2021/04/02 05:29:14;;;;;;;;;;;7.00;97.60;;;;;;5074028;28;19916;-71
2021/04/02 05:31:39;;;;;;;;;;;7.10;96.50;;;;;;5076031;28;19916;-71
2021/04/02 05:34:07;;;;;;;;;;;6.90;95.90;;;;;;5081341;28;19952;-70
2021/04/02 05:36:35;;;;;;;;;;;7.10;96.10;;;;;;5065221;28;19920;-71
2021/04/02 05:39:01;;;;;;;;;;;7.10;96.30;;;;;;5074407;28;19928;-71
2021/04/02 05:41:52;;;;;;;;;;;7.00;95.40;;;;;;5077128;28;19924;-71
2021/04/02 05:44:19;;;;;;;;;;;7.00;94.50;;;;;;5083343;28;20257;-71
2021/04/02 05:46:44;;;;;;;;;;;7.10;95.30;;;;;;5093894;28;19964;-71
2021/04/02 05:49:10;;;;;;;;;;;7.20;94.80;;;;;;5085921;28;19967;-71
2021/04/02 05:51:38;;;;;;;;;;;7.20;93.50;;;;;;5081956;28;19920;-70
2021/04/02 05:54:06;;;;;;;;;;;7.20;94.30;;;;;;5094394;27;19930;-70
2021/04/02 05:56:34;;;;;;;;;;;7.10;93.10;;;;;;5089772;28;19950;-71
2021/04/02 05:59:00;;;;;;;;;;;7.20;93.60;;;;;;5085149;28;19916;-71
2021/04/02 06:01:28;;;;;;;;;;;7.10;93.60;;;;;;5098493;28;19923;-73
2021/04/02 06:03:53;;;;;;;;;;;7.10;92.90;;;;;;5092858;28;20349;-72
2021/04/02 06:06:19;;;;;;;;;;;7.20;93.80;;;;;;5068689;28;19970;-73
2021/04/02 06:08:45;;;;;;;;;;;7.20;93.50;;;;;;5089240;28;19950;-72
2021/04/02 06:11:13;;;;;;;;;;;7.20;92.70;;;;;;5063439;28;19916;-71
2021/04/02 06:13:39;;;;;;;;;;;7.30;92.60;;;;;;5076713;28;19928;-72
2021/04/02 06:16:05;;;;;;;;;;;7.20;91.80;;;;;;5089061;28;19916;-71
2021/04/02 06:18:33;;;;;;;;;;;7.20;92.80;;;;;;5076615;28;19920;-71
2021/04/02 06:20:58;;;;;;;;;;;7.30;92.40;;;;;;5093010;27;20118;-71
2021/04/02 06:23:25;;;;;;;;;;;7.20;92.50;;;;;;5076685;28;19978;-70
2021/04/02 06:25:57;;;;;;;;;;;7.20;91.60;;;;;;5099099;28;19927;-71
2021/04/02 06:28:43;;;;;;;;;;;7.20;91.70;;;;;;5120720;27;19928;-71
2021/04/02 06:31:12;;;;;;;;;;;7.30;92.10;;;;;;5086964;28;19916;-71
2021/04/02 06:33:42;;;;;;;;;;;7.30;92.40;;;;;;5093817;28;19927;-71
2021/04/02 06:36:24;;;;;;;;;;;7.30;92.10;;;;;;5091857;28;19966;-71
2021/04/02 06:38:50;;;;;;;;;;;7.20;91.80;;;;;;5090398;27;20423;-71
2021/04/02 06:41:16;;;;;;;;;;;7.30;93.20;;;;;;5082511;28;19951;-71
2021/04/02 06:43:45;;;;;;;;;;;7.30;91.40;;;;;;5092129;28;20032;-71
2021/04/02 06:46:12;;;;;;;;;;;7.40;92.50;;;;;;5094151;28;19912;-71
2021/04/02 06:48:38;;;;;;;;;;;7.30;91.70;;;;;;5077662;28;20390;-70
2021/04/02 06:51:11;;;;;;;;;;;7.40;92.30;;;;;;5095304;28;19924;-71
2021/04/02 06:53:37;;;;;;;;;;;7.40;91.80;;;;;;5097550;28;20073;-70
2021/04/02 06:56:02;;;;;;;;;;;7.40;91.40;;;;;;5096893;28;19998;-71
2021/04/02 06:58:28;;;;;;;;;;;7.40;91.90;;;;;;5094215;27;19959;-71
2021/04/02 07:00:54;;;;;;;;;;;7.40;91.90;;;;;;5092888;27;19917;-71
2021/04/02 07:03:20;;;;;;;;;;;7.50;91.20;;;;;;5092683;27;20512;-71
2021/04/02 07:05:45;;;;;;;;;;;7.40;91.30;;;;;;5089138;28;21887;-71
2021/04/02 07:08:15;;;;;;;;;;;7.40;91.20;;;;;;5076797;28;19924;-70
2021/04/02 07:10:42;;;;;;;;;;;7.40;91.00;;;;;;5078565;28;19916;-71
2021/04/02 07:13:08;;;;;;;;;;;7.30;91.70;;;;;;5090516;28;19994;-72
2021/04/02 07:15:34;;;;;;;;;;;7.30;92.40;;;;;;5077311;28;19928;-71
2021/04/02 07:18:00;;;;;;;;;;;7.30;93.10;;;;;;5091218;28;19972;-71
2021/04/02 07:20:26;;;;;;;;;;;7.30;92.40;;;;;;5089771;28;20266;-71
2021/04/02 07:22:52;;;;;;;;;;;7.40;92.30;;;;;;5092911;28;19920;-71
2021/04/02 07:25:18;;;;;;;;;;;7.50;91.80;;;;;;5090987;28;20287;-71
2021/04/02 07:27:43;;;;;;;;;;;7.40;90.90;;;;;;5079870;28;19970;-72
2021/04/02 07:30:11;;;;;;;;;;;7.40;92.00;;;;;;5090873;28;19916;-72
2021/04/02 07:32:38;;;;;;;;;;;7.50;92.80;;;;;;5090626;28;20067;-72
2021/04/02 07:35:06;;;;;;;;;;;7.50;91.40;;;;;;5092281;28;19915;-71
2021/04/02 07:37:35;;;;;;;;;;;7.50;91.10;;;;;;5089436;28;19976;-72
2021/04/02 07:40:00;;;;;;;;;;;7.60;91.60;;;;;;5091025;28;19911;-72
2021/04/02 07:42:26;;;;;;;;;;;7.60;91.70;;;;;;5090972;28;19912;-71
2021/04/02 07:44:56;;;;;;;;;;;7.70;91.40;;;;;;5089166;28;19955;-70
2021/04/02 07:47:22;;;;;;;;;;;7.70;91.80;;;;;;5092033;28;19965;-72
2021/04/02 07:49:53;;;;;;;;;;;7.70;92.00;;;;;;5090564;28;19911;-72
2021/04/02 07:52:28;;;;;;;;;;;7.70;91.00;;;;;;5092625;28;19916;-72
2021/04/02 07:55:03;;;;;;;;;;;7.60;91.50;;;;;;5097010;27;19948;-72
2021/04/02 07:57:29;;;;;;;;;;;7.70;90.90;;;;;;5076128;28;20382;-71
2021/04/02 07:59:57;;;;;;;;;;;7.70;91.70;;;;;;5083221;28;19912;-72
2021/04/02 08:02:31;;;;;;;;;;;7.70;92.00;;;;;;5089423;28;19992;-71
2021/04/02 08:04:59;;;;;;;;;;;7.60;91.70;;;;;;5090297;28;19969;-71
2021/04/02 08:07:31;;;;;;;;;;;7.60;91.90;;;;;;5091824;28;19912;-72
2021/04/02 08:09:59;;;;;;;;;;;7.80;92.60;;;;;;5091937;28;19915;-71
2021/04/02 08:12:26;;;;;;;;;;;7.70;91.90;;;;;;5094359;28;19978;-71
2021/04/02 08:14:51;;;;;;;;;;;7.80;93.30;;;;;;5092612;28;19912;-71
2021/04/02 08:17:21;;;;;;;;;;;7.90;92.60;;;;;;5089031;28;20038;-71
2021/04/02 08:19:49;;;;;;;;;;;7.90;92.10;;;;;;5096694;28;19916;-71
2021/04/02 08:22:18;;;;;;;;;;;7.80;90.90;;;;;;5089547;28;19916;-71
2021/04/02 08:24:44;;;;;;;;;;;7.70;91.50;;;;;;5077637;28;19972;-71
2021/04/02 08:27:10;;;;;;;;;;;7.70;92.00;;;;;;5090836;28;20345;-70
2021/04/02 08:29:41;;;;;;;;;;;7.70;92.60;;;;;;5090615;28;19920;-70
2021/04/02 08:32:07;;;;;;;;;;;7.60;91.90;;;;;;5086165;28;20329;-70
2021/04/02 08:34:33;;;;;;;;;;;7.60;92.60;;;;;;5090218;28;19920;-70
2021/04/02 08:37:02;;;;;;;;;;;7.70;92.00;;;;;;5091609;28;20280;-71
2021/04/02 08:39:27;;;;;;;;;;;7.70;92.20;;;;;;5091091;28;19927;-70
2021/04/02 08:41:59;;;;;;;;;;;7.70;92.10;;;;;;5094391;28;19920;-71
2021/04/02 08:44:30;;;;;;;;;;;7.70;91.90;;;;;;5093386;28;19919;-71
2021/04/02 08:46:56;;;;;;;;;;;7.60;91.30;;;;;;5092791;28;19917;-70
2021/04/02 08:49:24;;;;;;;;;;;7.60;92.50;;;;;;5114242;27;19916;-70
2021/04/02 08:51:53;;;;;;;;;;;7.80;92.50;;;;;;5091701;28;20269;-71
2021/04/02 08:54:20;;;;;;;;;;;7.80;92.80;;;;;;5087182;28;19916;-70
2021/04/02 08:56:47;;;;;;;;;;;7.80;93.70;;;;;;5078994;28;20503;-71
2021/04/02 08:59:12;;;;;;;;;;;8.00;93.00;;;;;;5086617;28;20071;-71
2021/04/02 09:01:45;;;;;;;;;;;8.00;91.90;;;;;;5097231;27;20015;-71
2021/04/02 09:04:10;;;;;;;;;;;8.00;91.90;;;;;;5089673;28;19924;-71
2021/04/02 09:06:38;;;;;;;;;;;7.80;91.50;;;;;;5087154;28;20045;-71
2021/04/02 09:09:09;;;;;;;;;;;7.90;91.40;;;;;;5096977;27;19920;-70
2021/04/02 09:11:35;;;;;;;;;;;8.00;92.30;;;;;;5102067;27;20237;-70
2021/04/02 09:14:03;;;;;;;;;;;7.80;90.30;;;;;;5088185;28;19920;-70
2021/04/02 09:16:34;;;;;;;;;;;7.80;90.70;;;;;;5103463;27;20450;-70
2021/04/02 09:18:59;;;;;;;;;;;7.90;93.00;;;;;;5087670;28;20052;-72
2021/04/02 09:21:25;;;;;;;;;;;8.10;92.60;;;;;;5095320;28;20010;-72
2021/04/02 09:23:51;;;;;;;;;;;8.20;91.80;;;;;;5090431;28;19916;-72
2021/04/02 09:26:19;;;;;;;;;;;8.30;91.30;;;;;;5078639;28;19916;-71
2021/04/02 09:28:47;;;;;;;;;;;8.40;90.10;;;;;;5093461;28;19917;-71
2021/04/02 09:31:14;;;;;;;;;;;8.30;90.00;;;;;;5090165;28;19928;-71
2021/04/02 09:33:42;;;;;;;;;;;8.30;90.40;;;;;;5099273;28;20334;-72
2021/04/02 09:36:09;;;;;;;;;;;8.40;89.80;;;;;;5089551;28;20045;-72
2021/04/02 09:38:35;;;;;;;;;;;8.40;90.80;;;;;;5095019;28;20285;-71
2021/04/02 09:41:04;;;;;;;;;;;8.60;90.70;;;;;;5108031;28;19919;-72
2021/04/02 09:43:39;;;;;;;;;;;8.60;88.70;;;;;;5107007;28;20002;-72
2021/04/02 09:46:07;;;;;;;;;;;8.60;87.90;;;;;;5091782;28;20314;-71
2021/04/02 09:48:38;;;;;;;;;;;8.40;88.50;;;;;;5090869;28;20383;-71
2021/04/02 09:51:04;;;;;;;;;;;8.50;88.70;;;;;;5088820;28;19920;-72
2021/04/02 09:53:30;;;;;;;;;;;8.40;90.00;;;;;;5089588;28;19930;-72
2021/04/02 09:55:58;;;;;;;;;;;8.40;91.00;;;;;;5089734;28;20326;-72
2021/04/02 09:58:24;;;;;;;;;;;8.50;91.00;;;;;;5088206;28;19919;-71
2021/04/02 10:00:49;;;;;;;;;;;8.40;89.80;;;;;;5093464;28;20345;-71
2021/04/02 10:03:17;;;;;;;;;;;8.40;89.70;;;;;;5090095;28;19973;-71
2021/04/02 10:05:43;;;;;;;;;;;8.40;90.50;;;;;;5091876;28;19927;-72
2021/04/02 10:08:08;;;;;;;;;;;8.50;89.70;;;;;;5093598;28;19911;-71
2021/04/02 10:10:34;;;;;;;;;;;8.40;85.70;;;;;;5089628;28;19920;-71
2021/04/02 10:13:00;;;;;;;;;;;8.40;86.80;;;;;;5093499;28;19924;-71
2021/04/02 10:15:25;;;;;;;;;;;8.60;89.10;;;;;;5089613;28;19920;-72
2021/04/02 10:17:56;;;;;;;;;;;8.70;89.20;;;;;;5089998;28;19911;-72
2021/04/02 10:20:22;;;;;;;;;;;8.80;87.80;;;;;;5092053;28;20051;-72
2021/04/02 10:22:50;;;;;;;;;;;9.00;88.30;;;;;;5092254;28;19995;-72
2021/04/02 10:25:16;;;;;;;;;;;9.00;84.50;;;;;;5092783;28;19916;-72
2021/04/02 10:27:42;;;;;;;;;;;9.10;86.00;;;;;;5091701;28;19962;-72
2021/04/02 10:30:08;;;;;;;;;;;9.20;85.80;;;;;;5110489;27;19919;-72
2021/04/02 10:32:33;;;;;;;;;;;9.40;86.00;;;;;;5093563;28;19924;-72
2021/04/02 10:34:59;;;;;;;;;;;9.40;83.70;;;;;;5092814;28;19912;-72
2021/04/02 10:37:25;;;;;;;;;;;9.60;85.50;;;;;;5088941;28;19912;-72
2021/04/02 10:39:53;;;;;;;;;;;9.60;81.20;;;;;;5097392;28;19918;-72
2021/04/02 10:42:20;;;;;;;;;;;9.50;79.70;;;;;;5095059;28;19923;-71
2021/04/02 10:44:48;;;;;;;;;;;9.60;79.80;;;;;;5092660;28;19916;-72
2021/04/02 10:47:14;;;;;;;;;;;9.60;81.20;;;;;;5090798;28;20061;-71
2021/04/02 10:49:39;;;;;;;;;;;9.90;78.90;;;;;;5090216;28;20011;-72
2021/04/02 10:52:05;;;;;;;;;;;10.00;78.90;;;;;;5093076;28;19920;-71
2021/04/02 10:54:33;;;;;;;;;;;9.90;80.10;;;;;;5089385;28;20020;-72
2021/04/02 10:56:58;;;;;;;;;;;9.90;78.30;;;;;;5092033;28;19920;-71
2021/04/02 10:59:29;;;;;;;;;;;10.00;76.70;;;;;;5090337;28;19923;-71
2021/04/02 11:01:54;;;;;;;;;;;10.00;77.40;;;;;;5091591;28;20229;-72
2021/04/02 11:04:22;;;;;;;;;;;10.00;78.10;;;;;;5093547;28;20029;-72
2021/04/02 11:06:50;;;;;;;;;;;10.00;78.10;;;;;;5089792;28;19920;-72
2021/04/02 11:09:18;;;;;;;;;;;10.00;78.60;;;;;;5090024;28;19928;-72
2021/04/02 11:11:43;;;;;;;;;;;9.80;75.30;;;;;;5088587;28;19923;-71
2021/04/02 11:14:09;;;;;;;;;;;9.90;75.50;;;;;;5090760;28;19924;-72
2021/04/02 11:16:34;;;;;;;;;;;10.10;77.80;;;;;;5093151;28;19912;-71
2021/04/02 11:19:02;;;;;;;;;;;10.20;75.60;;;;;;5092667;28;19912;-71
2021/04/02 11:21:27;;;;;;;;;;;10.00;71.70;;;;;;5092413;28;20294;-70
2021/04/02 11:23:53;;;;;;;;;;;9.90;72.70;;;;;;5092444;28;19959;-71
2021/04/02 11:26:19;;;;;;;;;;;10.10;79.20;;;;;;5091509;28;20061;-71
2021/04/02 11:28:47;;;;;;;;;;;10.60;78.40;;;;;;5086384;28;20004;-71
2021/04/02 11:31:12;;;;;;;;;;;10.80;77.60;;;;;;5124779;27;19928;-71
2021/04/02 11:33:38;;;;;;;;;;;10.90;72.50;;;;;;5091311;28;20769;-73
2021/04/02 11:36:04;;;;;;;;;;;10.70;71.20;;;;;;5089222;28;19916;-71
2021/04/02 11:38:30;;;;;;;;;;;10.80;71.90;;;;;;5090005;28;20364;-71
2021/04/02 11:40:56;;;;;;;;;;;11.10;72.30;;;;;;5090846;28;19919;-71
2021/04/02 11:43:24;;;;;;;;;;;11.10;70.20;;;;;;5091271;28;19913;-71
2021/04/02 11:45:53;;;;;;;;;;;10.90;68.40;;;;;;5089651;28;20289;-71
2021/04/02 11:48:18;;;;;;;;;;;11.20;68.90;;;;;;5090524;28;19919;-72
2021/04/02 11:50:46;;;;;;;;;;;11.60;69.10;;;;;;5091916;28;19913;-72
2021/04/02 11:53:11;;;;;;;;;;;12.40;76.90;;;;;;5090908;28;20034;-72
2021/04/02 11:55:37;;;;;;;;;;;12.70;66.90;;;;;;5098902;28;20034;-72
2021/04/02 11:58:05;;;;;;;;;;;13.00;67.10;;;;;;5080216;28;19920;-72
2021/04/02 12:00:33;;;;;;;;;;;13.00;65.40;;;;;;5091698;28;19921;-72
2021/04/02 12:03:01;;;;;;;;;;;13.60;66.70;;;;;;5089869;28;19920;-72
2021/04/02 12:05:28;;;;;;;;;;;13.60;61.30;;;;;;5095387;28;19912;-71
2021/04/02 12:07:56;;;;;;;;;;;13.60;60.80;;;;;;5092946;28;19915;-72
2021/04/02 12:10:24;;;;;;;;;;;13.40;61.30;;;;;;5126434;27;19976;-71
2021/04/02 12:12:54;;;;;;;;;;;13.50;59.90;;;;;;5092999;28;20269;-71
2021/04/02 12:15:24;;;;;;;;;;;13.80;61.10;;;;;;5094617;28;19912;-72
2021/04/02 12:17:50;;;;;;;;;;;13.70;60.50;;;;;;5088489;28;19931;-71
2021/04/02 12:20:16;;;;;;;;;;;13.70;57.50;;;;;;5088316;28;19920;-71
2021/04/02 12:22:46;;;;;;;;;;;13.50;60.10;;;;;;5091353;28;19923;-71
2021/04/02 12:25:12;;;;;;;;;;;13.20;60.10;;;;;;5092407;28;19923;-72
2021/04/02 12:27:40;;;;;;;;;;;13.80;61.50;;;;;;5094302;28;19950;-72
2021/04/02 12:30:09;;;;;;;;;;;14.00;58.80;;;;;;5086538;28;19916;-72
2021/04/02 12:32:37;;;;;;;;;;;14.30;58.50;;;;;;5090911;28;19940;-72
2021/04/02 12:35:05;;;;;;;;;;;14.70;60.60;;;;;;5091371;28;19920;-72
2021/04/02 12:37:30;;;;;;;;;;;15.20;58.20;;;;;;5079424;28;19969;-72
2021/04/02 12:39:56;;;;;;;;;;;16.10;60.10;;;;;;5089735;28;19912;-72
2021/04/02 12:42:22;;;;;;;;;;;16.80;62.80;;;;;;5092225;28;19917;-72
2021/04/02 12:44:47;;;;;;;;;;;16.50;52.20;;;;;;5092682;28;19908;-71
2021/04/02 12:47:13;;;;;;;;;;;15.80;52.00;;;;;;5093552;28;19920;-71
2021/04/02 12:49:38;;;;;;;;;;;15.60;54.00;;;;;;5094217;28;19919;-72
2021/04/02 12:52:04;;;;;;;;;;;15.70;53.60;;;;;;5091002;28;20003;-72
2021/04/02 12:54:34;;;;;;;;;;;16.20;54.10;;;;;;5086088;28;19965;-71
2021/04/02 12:57:00;;;;;;;;;;;16.40;52.50;;;;;;5093061;28;20003;-70
2021/04/02 12:59:26;;;;;;;;;;;17.00;53.50;;;;;;5085654;28;19920;-72
2021/04/02 13:01:51;;;;;;;;;;;17.50;52.70;;;;;;5093596;28;19985;-70
2021/04/02 13:04:19;;;;;;;;;;;17.60;49.90;;;;;;5124812;27;19920;-71
2021/04/02 13:06:45;;;;;;;;;;;18.00;52.50;;;;;;5092308;28;20001;-71
2021/04/02 13:09:10;;;;;;;;;;;18.00;50.00;;;;;;5096352;28;20317;-71
2021/04/02 13:11:36;;;;;;;;;;;18.90;51.50;;;;;;5088932;28;20283;-70
2021/04/02 13:14:01;;;;;;;;;;;18.30;49.50;;;;;;5096597;28;19938;-71
2021/04/02 13:16:29;;;;;;;;;;;18.90;51.00;;;;;;5090228;28;19946;-71
2021/04/02 13:18:57;;;;;;;;;;;17.70;48.40;;;;;;5091879;28;20015;-71
2021/04/02 13:21:23;;;;;;;;;;;17.90;52.50;;;;;;5086657;28;19918;-71
2021/04/02 13:23:50;;;;;;;;;;;18.60;50.60;;;;;;5093005;28;19965;-72
2021/04/02 13:26:16;;;;;;;;;;;19.00;50.10;;;;;;5093715;28;19916;-72
2021/04/02 13:28:45;;;;;;;;;;;19.20;48.30;;;;;;5090062;28;19957;-72
2021/04/02 13:31:11;;;;;;;;;;;19.00;47.70;;;;;;5090223;28;19946;-72
2021/04/02 13:33:39;;;;;;;;;;;18.80;46.50;;;;;;5091677;28;19922;-71
2021/04/02 13:36:04;;;;;;;;;;;18.50;47.60;;;;;;5088554;28;20382;-72
2021/04/02 13:38:32;;;;;;;;;;;18.40;49.50;;;;;;5087935;28;19923;-72
2021/04/02 13:40:58;;;;;;;;;;;18.70;48.50;;;;;;5089981;28;19920;-71
2021/04/02 13:43:23;;;;;;;;;;;18.00;45.10;;;;;;5110968;28;20038;-71
2021/04/02 13:45:49;;;;;;;;;;;17.70;45.80;;;;;;5089334;28;19912;-72
2021/04/02 13:48:15;;;;;;;;;;;18.00;48.50;;;;;;5088886;28;19961;-70
2021/04/02 13:50:40;;;;;;;;;;;17.80;47.00;;;;;;5091457;28;20497;-70
2021/04/02 13:53:08;;;;;;;;;;;17.50;47.00;;;;;;5092481;28;19923;-72
2021/04/02 13:55:36;;;;;;;;;;;17.10;50.10;;;;;;5092535;28;19930;-72
2021/04/02 13:58:02;;;;;;;;;;;17.40;52.10;;;;;;5087812;28;19916;-71
2021/04/02 14:00:30;;;;;;;;;;;17.30;50.00;;;;;;5092948;28;19930;-72
2021/04/02 14:02:58;;;;;;;;;;;17.50;53.70;;;;;;5090906;28;19912;-72
2021/04/02 14:05:25;;;;;;;;;;;17.40;51.10;;;;;;5097157;28;19996;-72
2021/04/02 14:07:51;;;;;;;;;;;17.30;49.00;;;;;;5095469;28;20002;-72
2021/04/02 14:10:37;;;;;;;;;;;17.00;49.30;;;;;;5094916;28;19999;-71
2021/04/02 14:13:06;;;;;;;;;;;16.70;49.70;;;;;;5095000;28;19953;-71
2021/04/02 14:15:32;;;;;;;;;;;16.60;49.10;;;;;;5094903;28;20501;-71
2021/04/02 14:17:57;;;;;;;;;;;16.00;49.50;;;;;;5091538;28;19978;-71
2021/04/02 14:20:32;;;;;;;;;;;16.20;51.80;;;;;;5094957;28;19945;-72
2021/04/02 14:22:59;;;;;;;;;;;16.00;52.70;;;;;;5094656;28;21332;-71
2021/04/02 14:25:30;;;;;;;;;;;15.90;52.00;;;;;;5092077;28;19920;-70
2021/04/02 14:27:56;;;;;;;;;;;15.60;51.40;;;;;;5111481;27;20340;-71